Time;durP1;ratioP1;P1;durP2;ratioP2;P2;SDS_P1;SDS_P2;PMS_P1;PMS_P2;Temp;Humidity;BMP_temperature;BMP_pressure;BME280_temperature;BME280_humidity;BME280_pressure;Samples;Min_cycle;Max_cycle;Signal;HPM_P1;HPM_P2
2023/01/23 00:00:36;;;;;;;18.00;11.45;;;2.70;99.90;;;;;;5049175;28;20041;-57
2023/01/23 00:03:02;;;;;;;18.27;10.93;;;2.70;99.90;;;;;;5046554;28;20048;-54
2023/01/23 00:05:27;;;;;;;26.17;12.93;;;2.70;99.90;;;;;;5048612;28;20331;-56
2023/01/23 00:07:53;;;;;;;22.87;12.83;;;2.70;99.90;;;;;;5048557;28;20107;-55
2023/01/23 00:10:18;;;;;;;19.40;11.93;;;2.70;99.90;;;;;;5049973;28;20037;-56
2023/01/23 00:12:47;;;;;;;21.43;11.93;;;2.70;99.90;;;;;;5049129;28;20095;-60
2023/01/23 00:15:13;;;;;;;20.67;12.20;;;2.70;99.90;;;;;;5047988;28;20276;-57
2023/01/23 00:17:40;;;;;;;21.77;11.98;;;2.70;99.90;;;;;;5048381;28;20120;-56
2023/01/23 00:20:08;;;;;;;19.52;12.90;;;2.70;99.90;;;;;;5048054;28;20548;-58
2023/01/23 00:22:34;;;;;;;18.50;11.48;;;2.70;99.90;;;;;;5048600;28;20044;-57
2023/01/23 00:24:59;;;;;;;21.90;12.57;;;2.70;99.90;;;;;;5047476;28;20025;-58
2023/01/23 00:27:25;;;;;;;23.90;12.47;;;2.70;99.90;;;;;;5048469;28;20029;-58
2023/01/23 00:29:54;;;;;;;21.50;12.33;;;2.70;99.90;;;;;;5048267;28;20036;-59
2023/01/23 00:32:19;;;;;;;16.50;10.63;;;2.70;99.90;;;;;;5048950;28;20290;-57
2023/01/23 00:34:46;;;;;;;18.70;11.70;;;2.70;99.90;;;;;;5047249;28;20086;-58
2023/01/23 00:37:12;;;;;;;21.00;12.27;;;2.60;99.90;;;;;;5048667;28;20133;-56
2023/01/23 00:39:38;;;;;;;19.40;12.30;;;2.60;99.90;;;;;;5044804;28;20494;-57
2023/01/23 00:42:04;;;;;;;19.73;11.13;;;2.70;99.90;;;;;;5048823;28;20033;-57
2023/01/23 00:44:30;;;;;;;17.80;11.47;;;2.60;99.90;;;;;;5047272;28;20043;-58
2023/01/23 00:46:56;;;;;;;17.10;11.73;;;2.60;99.90;;;;;;5047491;28;20286;-58
2023/01/23 00:49:22;;;;;;;21.80;11.73;;;2.60;99.90;;;;;;5048012;28;20279;-56
2023/01/23 00:51:47;;;;;;;21.95;11.52;;;2.60;99.90;;;;;;5048530;28;20097;-58
2023/01/23 00:54:13;;;;;;;16.30;11.53;;;2.60;99.90;;;;;;5047912;28;20033;-55
2023/01/23 00:56:38;;;;;;;21.17;10.97;;;2.60;99.90;;;;;;5047772;28;20084;-58
2023/01/23 00:59:04;;;;;;;21.23;10.20;;;2.60;99.90;;;;;;5047860;28;20109;-56
2023/01/23 01:01:31;;;;;;;20.50;12.20;;;2.60;99.90;;;;;;5048253;28;20033;-57
2023/01/23 01:03:57;;;;;;;25.75;13.95;;;2.60;99.90;;;;;;5046674;28;20643;-56
2023/01/23 01:06:23;;;;;;;21.50;10.77;;;2.60;99.90;;;;;;5048583;28;20033;-56
2023/01/23 01:08:48;;;;;;;18.10;12.27;;;2.60;99.90;;;;;;5048015;28;20127;-56
2023/01/23 01:11:14;;;;;;;21.53;11.47;;;2.60;99.90;;;;;;5048222;28;20287;-58
2023/01/23 01:13:40;;;;;;;20.63;11.33;;;2.60;99.90;;;;;;5047299;28;20037;-59
2023/01/23 01:16:07;;;;;;;19.88;11.48;;;2.60;99.90;;;;;;5047745;28;20033;-57
2023/01/23 01:18:33;;;;;;;22.23;11.77;;;2.60;99.90;;;;;;5047515;28;20041;-56
2023/01/23 01:20:58;;;;;;;15.82;10.90;;;2.60;99.90;;;;;;5048085;28;20033;-56
2023/01/23 01:23:25;;;;;;;20.20;11.10;;;2.70;99.90;;;;;;5047061;28;20036;-56
2023/01/23 01:25:50;;;;;;;22.50;10.75;;;2.60;99.90;;;;;;5047598;28;20424;-59
2023/01/23 01:28:16;;;;;;;15.47;10.73;;;2.60;99.90;;;;;;5047980;28;20033;-58
2023/01/23 01:30:42;;;;;;;16.33;11.55;;;2.70;99.90;;;;;;5047586;28;20120;-56
2023/01/23 01:33:09;;;;;;;18.90;12.17;;;2.60;99.90;;;;;;5046910;28;20037;-55
2023/01/23 01:35:38;;;;;;;17.30;11.82;;;2.60;99.90;;;;;;5045294;28;20045;-55
2023/01/23 01:38:04;;;;;;;18.40;12.07;;;2.70;99.90;;;;;;5047919;28;20037;-54
2023/01/23 01:40:34;;;;;;;22.90;13.00;;;2.60;99.90;;;;;;5048169;28;20110;-56
2023/01/23 01:43:04;;;;;;;23.83;12.48;;;2.70;99.90;;;;;;5047505;28;20120;-57
2023/01/23 01:46:02;;;;;;;21.52;11.40;;;2.70;99.90;;;;;;5047409;28;20410;-57
2023/01/23 01:48:33;;;;;;;;;;;2.70;99.90;;;;;;5048111;28;20048;-56
2023/01/23 01:51:01;;;;;;;17.67;11.82;;;2.70;99.90;;;;;;5045410;28;20003;-59
2023/01/23 01:53:30;;;;;;;20.92;12.10;;;2.70;99.90;;;;;;5046801;28;20051;-56
2023/01/23 01:55:56;;;;;;;21.35;11.57;;;2.70;99.90;;;;;;5046495;28;20044;-58
2023/01/23 01:58:22;;;;;;;17.40;12.02;;;2.70;99.90;;;;;;5047748;28;20065;-58
2023/01/23 02:00:47;;;;;;;23.63;12.60;;;2.70;99.90;;;;;;5047591;28;20114;-57
2023/01/23 02:03:15;;;;;;;21.87;12.70;;;2.70;99.90;;;;;;5047231;28;20375;-56
2023/01/23 02:05:47;;;;;;;18.15;11.18;;;2.70;99.90;;;;;;5044135;28;20059;-58
2023/01/23 02:08:43;;;;;;;18.65;11.98;;;2.70;99.90;;;;;;5047413;28;20433;-57
2023/01/23 02:11:09;;;;;;;24.30;11.63;;;2.70;99.90;;;;;;5047575;28;20182;-55
2023/01/23 02:13:38;;;;;;;22.43;12.23;;;2.70;99.90;;;;;;5048992;28;20124;-56
2023/01/23 02:16:11;;;;;;;22.02;12.15;;;2.70;99.90;;;;;;5051133;28;20134;-58
2023/01/23 02:18:41;;;;;;;19.15;12.93;;;2.70;99.90;;;;;;5050789;28;20178;-57
2023/01/23 02:21:07;;;;;;;21.63;12.35;;;2.80;99.90;;;;;;5050510;28;20049;-56
2023/01/23 02:24:07;;;;;;;21.58;12.65;;;2.70;99.90;;;;;;5047572;28;20041;-56
2023/01/23 02:26:42;;;;;;;24.40;12.50;;;2.70;99.90;;;;;;5047889;28;20136;-58
2023/01/23 02:29:08;;;;;;;22.83;13.27;;;2.70;99.90;;;;;;5049416;28;20390;-58
2023/01/23 02:31:36;;;;;;;22.50;11.90;;;2.70;99.90;;;;;;5047620;28;20144;-58
2023/01/23 02:34:03;;;;;;;29.65;14.50;;;2.70;99.90;;;;;;5049997;28;20409;-56
2023/01/23 02:36:32;;;;;;;22.20;12.88;;;2.70;99.90;;;;;;5049815;28;20037;-56
2023/01/23 02:39:06;;;;;;;18.80;13.30;;;2.80;99.90;;;;;;5050501;28;20234;-56
2023/01/23 02:41:35;;;;;;;21.70;12.23;;;2.80;99.90;;;;;;5050695;28;20544;-56
2023/01/23 02:44:12;;;;;;;23.08;13.65;;;2.80;99.90;;;;;;5049217;28;20033;-55
2023/01/23 02:46:38;;;;;;;22.23;12.23;;;2.80;99.90;;;;;;5050761;28;20120;-54
2023/01/23 02:49:04;;;;;;;22.25;12.45;;;2.80;99.90;;;;;;5050477;28;20080;-57
2023/01/23 02:51:30;;;;;;;21.60;12.97;;;2.80;99.90;;;;;;5050107;28;20068;-57
2023/01/23 02:53:55;;;;;;;19.80;11.90;;;2.80;99.90;;;;;;5049870;28;20520;-58
2023/01/23 02:56:21;;;;;;;16.00;12.17;;;2.80;99.90;;;;;;5050115;28;20041;-57
2023/01/23 03:01:34;;;;;;;18.55;12.43;;;2.80;99.90;;;;;;5049338;28;20279;-57
2023/01/23 03:04:05;;;;;;;17.90;12.48;;;2.80;99.90;;;;;;5049325;28;20064;-56
2023/01/23 03:06:35;;;;;;;21.15;12.60;;;2.80;99.90;;;;;;5050864;28;20033;-56
2023/01/23 03:09:06;;;;;;;21.25;12.10;;;2.80;99.90;;;;;;5049617;28;20047;-57
2023/01/23 03:11:33;;;;;;;25.75;13.18;;;2.80;99.90;;;;;;5063634;28;20091;-57
2023/01/23 03:13:59;;;;;;;22.67;12.93;;;2.80;99.90;;;;;;5049063;28;20405;-55
2023/01/23 03:16:24;;;;;;;24.93;13.73;;;2.80;99.90;;;;;;5049236;28;20037;-56
2023/01/23 03:18:50;;;;;;;22.60;14.03;;;2.80;99.90;;;;;;5031490;28;20049;-58
2023/01/23 03:21:15;;;;;;;22.07;13.67;;;2.80;99.90;;;;;;5048832;28;20562;-59
2023/01/23 03:23:43;;;;;;;25.03;14.30;;;2.80;99.90;;;;;;5048556;28;20494;-55
2023/01/23 03:26:09;;;;;;;22.70;13.88;;;2.80;99.90;;;;;;5049098;28;20482;-58
2023/01/23 03:31:18;;;;;;;18.90;12.95;;;2.80;99.90;;;;;;5050174;28;20045;-58
2023/01/23 03:33:44;;;;;;;21.67;13.60;;;2.80;99.90;;;;;;5048111;28;20033;-58
2023/01/23 03:36:11;;;;;;;23.23;14.53;;;2.80;99.90;;;;;;5048992;28;20044;-57
2023/01/23 03:38:37;;;;;;;24.65;13.70;;;2.80;99.90;;;;;;5049245;28;20033;-59
2023/01/23 03:43:46;;;;;;;26.27;14.30;;;2.80;99.90;;;;;;5048362;28;20040;-58
2023/01/23 03:46:12;;;;;;;22.60;14.40;;;2.80;99.90;;;;;;5049610;28;20036;-56
2023/01/23 03:48:38;;;;;;;21.47;12.10;;;2.80;99.90;;;;;;5048360;28;20043;-58
2023/01/23 03:51:04;;;;;;;24.50;14.75;;;2.80;99.90;;;;;;5048347;28;20078;-53
2023/01/23 03:53:30;;;;;;;19.20;13.80;;;2.80;99.90;;;;;;5048267;28;20060;-57
2023/01/23 03:55:55;;;;;;;18.77;13.23;;;2.80;99.90;;;;;;5049486;28;20526;-56
2023/01/23 03:58:21;;;;;;;22.60;14.43;;;2.80;99.90;;;;;;5048935;28;20029;-56
2023/01/23 04:00:47;;;;;;;24.87;14.40;;;2.80;99.90;;;;;;5047640;28;20045;-57
2023/01/23 04:03:12;;;;;;;19.10;13.57;;;2.80;99.90;;;;;;5048230;28;20461;-57
2023/01/23 04:05:38;;;;;;;21.37;13.47;;;2.80;99.90;;;;;;5049215;28;20037;-58
2023/01/23 04:08:03;;;;;;;21.40;13.10;;;2.80;99.90;;;;;;5048529;28;20041;-56
2023/01/23 04:10:29;;;;;;;19.53;13.30;;;2.80;99.90;;;;;;5049390;28;20029;-57
2023/01/23 04:12:55;;;;;;;21.77;13.83;;;2.80;99.90;;;;;;5048559;28;20120;-57
2023/01/23 04:15:20;;;;;;;25.03;13.83;;;2.80;99.90;;;;;;5048682;28;20041;-58
2023/01/23 04:17:46;;;;;;;23.97;14.80;;;2.80;99.90;;;;;;5048205;28;20040;-58
2023/01/23 04:20:12;;;;;;;27.43;14.43;;;2.80;99.90;;;;;;5049376;28;20555;-57
2023/01/23 04:22:38;;;;;;;24.27;14.10;;;2.80;99.90;;;;;;5048428;28;20485;-57
2023/01/23 04:25:04;;;;;;;20.60;14.93;;;2.80;99.90;;;;;;5048103;28;20040;-57
2023/01/23 04:27:30;;;;;;;23.95;14.32;;;2.80;99.90;;;;;;5048087;28;20033;-58
2023/01/23 04:29:57;;;;;;;21.60;15.30;;;2.80;99.90;;;;;;5048856;28;20160;-56
2023/01/23 04:32:23;;;;;;;21.67;14.57;;;2.80;99.90;;;;;;5048001;28;20064;-57
2023/01/23 04:34:49;;;;;;;26.33;15.90;;;2.80;99.90;;;;;;5047676;28;20041;-56
2023/01/23 04:37:15;;;;;;;25.60;14.73;;;2.80;99.90;;;;;;5048047;28;20041;-57
2023/01/23 04:39:40;;;;;;;21.33;14.30;;;2.80;99.90;;;;;;5047074;28;20402;-56
2023/01/23 04:42:06;;;;;;;22.63;13.83;;;2.80;99.90;;;;;;5049159;28;20028;-56
2023/01/23 04:44:31;;;;;;;24.07;14.87;;;2.80;99.90;;;;;;5047474;28;20090;-57
2023/01/23 04:46:57;;;;;;;24.77;14.83;;;2.80;99.90;;;;;;5047242;28;20485;-56
2023/01/23 04:49:24;;;;;;;29.73;15.33;;;2.80;99.90;;;;;;5048626;28;20041;-58
2023/01/23 04:51:50;;;;;;;28.13;14.18;;;2.80;99.90;;;;;;5047155;28;20055;-56
2023/01/23 04:54:16;;;;;;;25.95;16.25;;;2.80;99.90;;;;;;5047665;28;20029;-55
2023/01/23 04:56:43;;;;;;;25.88;15.50;;;2.80;99.90;;;;;;5048112;28;20560;-57
2023/01/23 04:59:08;;;;;;;26.73;14.13;;;2.80;99.90;;;;;;5046539;28;20033;-56
2023/01/23 05:01:35;;;;;;;21.08;14.00;;;2.80;99.90;;;;;;5048532;28;20032;-54
2023/01/23 05:04:00;;;;;;;24.63;15.30;;;2.80;99.90;;;;;;5043782;28;20032;-57
2023/01/23 05:06:26;;;;;;;27.92;15.55;;;2.80;99.90;;;;;;5048777;28;20456;-54
2023/01/23 05:08:52;;;;;;;25.37;14.73;;;2.80;99.90;;;;;;5047463;28;20040;-57
2023/01/23 05:11:17;;;;;;;23.63;13.83;;;2.80;99.90;;;;;;5049086;28;20043;-57
2023/01/23 05:13:43;;;;;;;21.67;14.40;;;2.80;99.90;;;;;;5046775;28;20418;-58
2023/01/23 05:16:09;;;;;;;27.60;14.23;;;2.80;99.90;;;;;;5047940;28;20029;-55
2023/01/23 05:18:34;;;;;;;27.87;15.70;;;2.80;99.90;;;;;;5047737;28;20387;-57
2023/01/23 05:21:00;;;;;;;23.10;14.93;;;2.80;99.90;;;;;;5048332;28;20041;-57
2023/01/23 05:23:25;;;;;;;20.47;14.80;;;2.80;99.90;;;;;;5047122;28;20029;-58
2023/01/23 05:25:51;;;;;;;19.30;13.67;;;2.80;99.90;;;;;;5048119;28;20506;-57
2023/01/23 05:28:17;;;;;;;23.83;13.87;;;2.80;99.90;;;;;;5047358;28;20051;-57
2023/01/23 05:30:42;;;;;;;19.73;14.20;;;2.80;99.90;;;;;;5048020;28;20052;-57
2023/01/23 05:33:08;;;;;;;25.00;14.93;;;2.80;99.90;;;;;;5047548;28;20048;-57
2023/01/23 05:35:33;;;;;;;26.53;14.37;;;2.80;99.90;;;;;;5047685;28;20563;-57
2023/01/23 05:37:59;;;;;;;21.43;15.73;;;2.80;99.90;;;;;;5047488;28;20036;-59
2023/01/23 05:40:25;;;;;;;26.40;15.00;;;2.80;99.90;;;;;;5047576;28;20152;-57
2023/01/23 05:42:50;;;;;;;19.93;14.17;;;2.80;99.90;;;;;;5047795;28;20029;-58
2023/01/23 05:45:16;;;;;;;20.97;13.70;;;2.80;99.90;;;;;;5046682;28;20055;-57
2023/01/23 05:47:42;;;;;;;23.58;14.88;;;2.80;99.90;;;;;;5048466;28;20025;-58
2023/01/23 05:50:12;;;;;;;20.10;14.10;;;2.80;99.90;;;;;;5051603;28;20143;-55
2023/01/23 05:52:38;;;;;;;19.25;14.30;;;2.80;99.90;;;;;;5051778;28;20487;-58
2023/01/23 05:55:04;;;;;;;21.23;13.83;;;2.80;99.90;;;;;;5050378;28;20091;-57
2023/01/23 05:57:29;;;;;;;25.75;15.60;;;2.80;99.90;;;;;;5051099;28;20406;-59
2023/01/23 05:59:55;;;;;;;26.83;16.10;;;2.80;99.90;;;;;;5049699;28;20040;-58
2023/01/23 06:02:20;;;;;;;21.13;14.47;;;2.80;99.90;;;;;;5051550;28;20072;-58
2023/01/23 06:04:47;;;;;;;27.53;14.13;;;2.80;99.90;;;;;;5050618;28;20060;-58
2023/01/23 06:07:15;;;;;;;26.17;15.02;;;2.80;99.90;;;;;;5051088;28;20600;-58
2023/01/23 06:09:41;;;;;;;23.67;15.35;;;2.80;99.90;;;;;;5049309;28;20452;-57
2023/01/23 06:12:07;;;;;;;24.90;16.63;;;2.80;99.90;;;;;;5051017;28;20075;-56
2023/01/23 06:14:33;;;;;;;24.50;15.43;;;2.80;99.90;;;;;;5047227;28;20051;-57
2023/01/23 06:16:59;;;;;;;20.43;13.90;;;2.80;99.90;;;;;;5051375;28;20028;-56
2023/01/23 06:19:24;;;;;;;23.07;13.80;;;2.80;99.90;;;;;;5050990;28;20053;-56
2023/01/23 06:21:50;;;;;;;19.30;13.50;;;2.80;99.90;;;;;;5050330;28;20068;-57
2023/01/23 06:24:15;;;;;;;20.23;13.50;;;2.80;99.90;;;;;;5045983;28;20033;-58
2023/01/23 06:26:41;;;;;;;20.57;13.60;;;2.80;99.90;;;;;;5051193;28;20033;-59
2023/01/23 06:29:06;;;;;;;19.83;13.90;;;2.80;99.90;;;;;;5050570;28;20124;-54
2023/01/23 06:31:32;;;;;;;19.20;13.67;;;2.80;99.90;;;;;;5051111;28;20032;-58
2023/01/23 06:33:58;;;;;;;19.77;13.97;;;2.80;99.90;;;;;;5049744;28;20812;-57
2023/01/23 06:36:24;;;;;;;23.15;14.40;;;2.80;99.90;;;;;;5051211;28;20029;-57
2023/01/23 06:38:51;;;;;;;25.48;14.57;;;2.80;99.90;;;;;;5051077;28;20056;-58
2023/01/23 06:41:16;;;;;;;19.08;13.57;;;2.80;99.90;;;;;;5050742;28;20075;-58
2023/01/23 06:43:42;;;;;;;18.73;14.02;;;2.80;99.90;;;;;;5049463;28;20060;-57
2023/01/23 06:46:08;;;;;;;24.87;15.13;;;2.80;99.90;;;;;;5050686;28;20043;-58
2023/01/23 06:48:35;;;;;;;18.65;13.20;;;2.80;99.90;;;;;;5049117;28;20422;-59
2023/01/23 06:51:01;;;;;;;20.67;14.05;;;2.80;99.90;;;;;;5049935;28;20490;-58
2023/01/23 06:53:27;;;;;;;;;;;2.80;99.90;;;;;;5048304;28;20521;-58
2023/01/23 06:55:52;;;;;;;22.30;13.98;;;2.80;99.90;;;;;;5049834;28;19971;-55
2023/01/23 06:58:19;;;;;;;23.43;13.83;;;2.80;99.90;;;;;;5049627;28;20048;-57
2023/01/23 07:00:44;;;;;;;19.40;13.63;;;2.80;99.90;;;;;;5050732;28;20037;-58
2023/01/23 07:03:12;;;;;;;20.37;14.97;;;2.80;99.90;;;;;;5048371;28;20052;-56
2023/01/23 07:05:39;;;;;;;20.10;14.20;;;2.80;99.90;;;;;;5050156;28;20037;-56
2023/01/23 07:08:07;;;;;;;25.55;14.40;;;2.80;99.90;;;;;;5049132;28;20426;-57
2023/01/23 07:10:33;;;;;;;22.35;14.40;;;2.80;99.90;;;;;;5049529;28;20635;-58
2023/01/23 07:12:59;;;;;;;23.92;14.30;;;2.80;99.90;;;;;;5049891;28;20064;-56
2023/01/23 07:15:25;;;;;;;19.27;13.97;;;2.80;99.90;;;;;;5048947;28;20111;-56
2023/01/23 07:17:50;;;;;;;23.03;14.27;;;2.80;99.90;;;;;;5050305;28;20394;-55
2023/01/23 07:20:16;;;;;;;21.13;14.83;;;2.80;99.90;;;;;;5047010;28;20296;-57
2023/01/23 07:22:41;;;;;;;17.20;12.13;;;2.80;99.90;;;;;;5050171;28;20029;-58
2023/01/23 07:25:08;;;;;;;24.00;12.20;;;2.80;99.90;;;;;;5047644;28;20037;-58
2023/01/23 07:27:33;;;;;;;20.73;13.65;;;2.80;99.90;;;;;;5049069;28;20053;-58
2023/01/23 07:29:59;;;;;;;25.63;16.13;;;2.80;99.90;;;;;;5049767;28;20047;-57
2023/01/23 07:32:24;;;;;;;23.03;14.43;;;2.80;99.90;;;;;;5050071;28;20047;-60
2023/01/23 07:34:51;;;;;;;26.40;13.47;;;2.80;99.90;;;;;;5048808;28;20102;-58
2023/01/23 07:37:17;;;;;;;29.23;14.88;;;2.80;99.90;;;;;;5048726;28;20044;-59
2023/01/23 07:39:44;;;;;;;27.57;14.03;;;2.80;99.90;;;;;;5049122;28;20090;-59
2023/01/23 07:42:12;;;;;;;30.42;12.93;;;2.80;99.90;;;;;;5046322;28;20039;-60
2023/01/23 07:44:38;;;;;;;25.23;13.65;;;2.80;99.90;;;;;;5048087;28;20036;-58
2023/01/23 07:47:03;;;;;;;23.40;16.30;;;2.80;99.90;;;;;;5048470;28;20116;-59
2023/01/23 07:49:29;;;;;;;27.57;14.10;;;2.80;99.90;;;;;;5043938;28;20041;-59
2023/01/23 07:51:54;;;;;;;27.30;15.27;;;2.80;99.90;;;;;;5049112;28;20033;-60
2023/01/23 07:54:20;;;;;;;20.57;14.13;;;2.80;99.90;;;;;;5046483;28;20083;-60
2023/01/23 07:56:49;;;;;;;24.90;15.13;;;2.80;99.90;;;;;;5048801;28;20116;-59
2023/01/23 07:59:14;;;;;;;22.85;13.90;;;2.80;99.90;;;;;;5049413;28;20094;-59
2023/01/23 08:01:40;;;;;;;21.53;13.17;;;2.80;99.90;;;;;;5047952;28;20029;-59
2023/01/23 08:04:05;;;;;;;21.80;13.33;;;2.80;99.90;;;;;;5048723;28;20045;-58
2023/01/23 08:06:32;;;;;;;21.30;13.97;;;2.90;99.90;;;;;;5049317;28;20490;-58
2023/01/23 08:08:58;;;;;;;22.38;13.63;;;2.90;99.90;;;;;;5047729;28;20033;-57
2023/01/23 08:11:25;;;;;;;18.53;14.03;;;2.90;99.90;;;;;;5048724;28;20082;-58
2023/01/23 08:13:51;;;;;;;15.82;12.27;;;2.90;99.90;;;;;;5047921;28;20065;-59
2023/01/23 08:16:17;;;;;;;21.85;12.60;;;2.90;99.90;;;;;;5049532;28;20044;-57
2023/01/23 08:18:43;;;;;;;15.50;12.13;;;2.90;99.90;;;;;;5048712;28;20033;-61
2023/01/23 08:21:09;;;;;;;21.08;13.60;;;2.90;99.90;;;;;;5035909;28;20517;-61
2023/01/23 08:23:35;;;;;;;19.00;13.50;;;2.90;99.90;;;;;;5043297;28;20170;-61
2023/01/23 08:26:03;;;;;;;24.13;13.93;;;2.90;99.90;;;;;;5035422;28;20120;-57
2023/01/23 08:28:29;;;;;;;18.80;13.40;;;2.90;99.90;;;;;;5044014;28;20037;-61
2023/01/23 08:30:58;;;;;;;18.33;13.10;;;2.90;99.90;;;;;;5044498;28;20095;-61
2023/01/23 08:33:24;;;;;;;23.80;14.52;;;2.90;99.90;;;;;;5041678;28;20882;-58
2023/01/23 08:35:51;;;;;;;22.50;12.47;;;2.90;99.90;;;;;;5043921;28;20045;-59
2023/01/23 08:38:18;;;;;;;20.05;12.27;;;2.90;99.90;;;;;;5043623;28;20492;-59
2023/01/23 08:40:44;;;;;;;23.58;14.75;;;2.90;99.90;;;;;;5040774;28;20048;-59
2023/01/23 08:43:12;;;;;;;16.25;12.65;;;2.90;99.90;;;;;;5042891;28;20119;-59
2023/01/23 08:45:44;;;;;;;17.50;12.55;;;3.00;99.90;;;;;;5042850;28;20048;-60
2023/01/23 08:48:11;;;;;;;21.80;14.30;;;3.00;99.90;;;;;;5040265;28;20582;-58
2023/01/23 08:50:36;;;;;;;19.17;12.80;;;3.00;99.90;;;;;;5042727;28;20052;-61
2023/01/23 08:53:02;;;;;;;19.47;13.87;;;3.00;99.90;;;;;;5036484;28;20041;-57
2023/01/23 08:55:28;;;;;;;25.70;12.90;;;3.00;99.90;;;;;;5040905;28;20041;-60
2023/01/23 08:57:54;;;;;;;18.73;13.38;;;3.00;99.90;;;;;;5035874;28;20056;-60
2023/01/23 09:00:20;;;;;;;22.90;13.60;;;3.00;99.90;;;;;;5042120;28;20029;-61
2023/01/23 09:02:46;;;;;;;17.98;12.43;;;3.00;99.90;;;;;;5042648;28;20119;-57
2023/01/23 09:05:12;;;;;;;;;;;3.00;99.90;;;;;;5043024;28;20033;-57
2023/01/23 09:07:39;;;;;;;19.15;12.68;;;3.00;99.90;;;;;;5045695;28;20119;-58
2023/01/23 09:10:06;;;;;;;16.58;12.05;;;3.00;99.90;;;;;;5043321;28;20404;-58
2023/01/23 09:12:31;;;;;;;;;;;3.10;99.90;;;;;;5047225;28;20044;-60
2023/01/23 09:14:58;;;;;;;19.42;12.05;;;3.10;99.90;;;;;;5043429;28;19932;-59
2023/01/23 09:17:24;;;;;;;17.13;12.20;;;3.10;99.90;;;;;;5043746;28;20091;-60
2023/01/23 09:19:49;;;;;;;20.23;12.63;;;3.10;99.90;;;;;;5044715;28;20539;-61
2023/01/23 09:22:16;;;;;;;14.68;11.95;;;3.10;99.90;;;;;;5042721;28;20047;-58
2023/01/23 09:24:41;;;;;;;20.73;13.35;;;3.10;99.90;;;;;;5048572;28;20036;-60
2023/01/23 09:27:08;;;;;;;21.27;12.50;;;3.20;99.90;;;;;;5051643;28;20041;-60
2023/01/23 09:29:34;;;;;;;21.92;13.90;;;3.20;99.90;;;;;;5050026;28;20654;-57
2023/01/23 09:32:00;;;;;;;21.13;14.63;;;3.20;99.90;;;;;;5050543;28;20033;-58
2023/01/23 09:34:27;;;;;;;22.70;13.25;;;3.20;99.90;;;;;;5050253;28;20037;-61
2023/01/23 09:36:52;;;;;;;20.23;12.93;;;3.20;99.90;;;;;;5048152;28;20044;-60
2023/01/23 09:39:19;;;;;;;21.67;12.83;;;3.20;99.90;;;;;;5046476;28;20029;-59
2023/01/23 09:41:46;;;;;;;15.18;11.50;;;3.30;99.90;;;;;;5046502;28;20071;-61
2023/01/23 09:44:16;;;;;;;;;;;3.30;99.90;;;;;;5046805;28;20047;-60
2023/01/23 09:46:56;;;;;;;14.52;11.60;;;3.30;99.90;;;;;;5048237;28;20356;-60
2023/01/23 09:49:33;;;;;;;18.52;11.65;;;3.30;99.90;;;;;;5046959;28;20139;-60
2023/01/23 09:52:19;;;;;;;20.40;11.57;;;3.30;99.90;;;;;;5048897;28;20127;-58
2023/01/23 09:54:53;;;;;;;17.15;10.98;;;3.30;99.90;;;;;;5049327;28;20048;-60
2023/01/23 09:57:35;;;;;;;17.80;12.00;;;3.30;99.90;;;;;;5050061;28;20049;-61
2023/01/23 10:00:17;;;;;;;17.98;11.90;;;3.40;99.90;;;;;;5047668;28;20041;-58
2023/01/23 10:02:43;;;;;;;21.58;12.20;;;3.40;99.90;;;;;;5047495;28;20399;-61
2023/01/23 10:05:14;;;;;;;18.95;13.05;;;3.40;99.90;;;;;;5061945;28;20379;-60
2023/01/23 10:08:17;;;;;;;15.45;13.00;;;3.40;99.90;;;;;;5047577;28;20163;-60
2023/01/23 10:11:20;;;;;;;13.93;11.35;;;3.50;99.90;;;;;;5049605;28;20043;-60
2023/01/23 10:13:57;;;;;;;15.38;11.55;;;3.50;99.90;;;;;;5046107;28;20079;-58
2023/01/23 10:17:05;;;;;;;18.63;11.38;;;3.50;99.90;;;;;;5047585;28;20094;-60
2023/01/23 10:19:49;;;;;;;18.52;11.50;;;3.50;99.90;;;;;;5027200;28;20059;-61
2023/01/23 10:22:26;;;;;;;16.77;11.80;;;3.50;99.90;;;;;;5046859;28;20256;-59
2023/01/23 10:24:54;;;;;;;14.48;10.98;;;3.60;99.90;;;;;;5046213;28;20041;-60
2023/01/23 10:27:31;;;;;;;15.30;11.90;;;3.60;99.90;;;;;;5043800;28;20029;-61
2023/01/23 10:29:59;;;;;;;16.35;10.70;;;3.60;99.90;;;;;;5046127;28;20531;-60
2023/01/23 10:32:28;;;;;;;17.42;12.65;;;3.70;99.90;;;;;;5045029;28;20135;-60
2023/01/23 10:35:01;;;;;;;15.65;10.50;;;3.70;99.90;;;;;;5045647;28;20048;-59
2023/01/23 10:37:43;;;;;;;15.18;11.07;;;3.80;99.90;;;;;;5047314;28;20627;-61
2023/01/23 10:43:18;;;;;;;20.20;10.25;;;4.00;99.90;;;;;;5032366;28;20385;-61
2023/01/23 10:45:46;;;;;;;11.90;10.27;;;4.10;99.90;;;;;;5050100;28;20036;-60
2023/01/23 10:48:30;;;;;;;13.90;10.25;;;4.30;99.90;;;;;;5043223;28;20040;-61
2023/01/23 10:50:57;;;;;;;15.85;9.65;;;4.40;99.90;;;;;;5043998;28;20079;-60
2023/01/23 10:53:24;;;;;;;13.52;10.85;;;4.50;99.90;;;;;;5047497;28;20045;-61
2023/01/23 10:55:52;;;;;;;23.92;12.77;;;4.60;99.90;;;;;;5048852;28;20048;-61
2023/01/23 10:58:35;;;;;;;14.45;10.90;;;4.60;99.90;;;;;;5048988;28;20123;-61
2023/01/23 11:01:00;;;;;;;15.75;10.80;;;4.70;99.90;;;;;;5048937;28;20106;-59
2023/01/23 11:03:29;;;;;;;15.30;10.87;;;4.70;99.90;;;;;;5046146;28;20040;-60
2023/01/23 11:06:06;;;;;;;15.10;11.73;;;4.80;99.90;;;;;;5047835;28;20037;-59
2023/01/23 11:08:35;;;;;;;16.90;12.02;;;4.80;99.90;;;;;;5046657;28;20048;-60
2023/01/23 11:11:22;;;;;;;14.27;10.85;;;4.80;99.90;;;;;;5048177;28;20044;-60
2023/01/23 11:14:03;;;;;;;11.75;8.95;;;4.80;99.90;;;;;;5046113;28;20037;-60
2023/01/23 11:16:28;;;;;;;13.18;9.73;;;4.80;99.90;;;;;;5047692;28;20041;-61
2023/01/23 11:19:08;;;;;;;14.25;10.40;;;4.80;99.90;;;;;;5046899;28;20044;-61
2023/01/23 11:21:49;;;;;;;12.77;9.52;;;4.80;99.90;;;;;;5047993;28;20483;-60
2023/01/23 11:24:21;;;;;;;12.70;10.27;;;4.80;99.90;;;;;;5046023;28;20033;-58
2023/01/23 11:26:56;;;;;;;13.02;10.52;;;4.80;99.90;;;;;;5047846;28;20047;-57
2023/01/23 11:29:24;;;;;;;13.88;11.18;;;4.80;99.90;;;;;;5046401;28;20041;-61
2023/01/23 11:31:56;;;;;;;16.70;10.70;;;4.80;99.90;;;;;;5046012;28;20041;-59
2023/01/23 11:34:26;;;;;;;15.43;11.13;;;4.70;99.90;;;;;;5048860;28;20094;-60
2023/01/23 11:37:00;;;;;;;15.32;11.02;;;4.70;99.90;;;;;;5045720;28;20051;-61
2023/01/23 11:39:35;;;;;;;14.35;10.27;;;4.70;99.90;;;;;;5047171;28;20040;-59
2023/01/23 11:42:01;;;;;;;14.90;10.00;;;4.70;99.90;;;;;;5049255;28;20620;-59
2023/01/23 11:44:28;;;;;;;14.15;10.95;;;4.60;99.90;;;;;;5039686;28;20048;-61
2023/01/23 11:47:02;;;;;;;17.38;11.48;;;4.60;99.90;;;;;;5041237;28;20041;-61
2023/01/23 11:49:50;;;;;;;16.13;10.95;;;4.60;99.90;;;;;;5045956;28;20091;-61
2023/01/23 11:52:37;;;;;;;20.85;11.57;;;4.60;99.90;;;;;;5044110;28;20087;-60
2023/01/23 11:55:02;;;;;;;11.98;10.65;;;4.60;99.90;;;;;;5026119;28;20324;-61
2023/01/23 11:57:53;;;;;;;16.53;11.70;;;4.60;99.90;;;;;;5039875;28;20118;-60
2023/01/23 12:00:44;;;;;;;12.30;10.90;;;4.60;99.90;;;;;;5043493;28;20120;-59
2023/01/23 12:03:30;;;;;;;14.18;11.40;;;4.60;99.90;;;;;;5041931;28;20507;-61
2023/01/23 12:06:08;;;;;;;14.88;12.25;;;4.60;99.90;;;;;;5045210;28;20047;-60
2023/01/23 12:08:53;;;;;;;;;;;4.60;99.90;;;;;;5045595;28;20059;-61
2023/01/23 12:11:23;;;;;;;14.25;11.25;;;4.60;99.90;;;;;;5042759;28;19920;-60
2023/01/23 12:14:22;;;;;;;16.40;12.35;;;4.60;99.90;;;;;;5049732;28;20205;-61
2023/01/23 12:16:52;;;;;;;15.15;11.10;;;4.70;99.90;;;;;;5048596;28;20071;-58
2023/01/23 12:19:35;;;;;;;14.98;10.77;;;4.60;99.90;;;;;;5044856;28;20102;-61
2023/01/23 12:22:17;;;;;;;14.35;10.15;;;4.60;99.90;;;;;;5043021;28;20044;-61
2023/01/23 12:25:09;;;;;;;15.13;10.20;;;4.70;99.90;;;;;;5044697;28;20047;-60
2023/01/23 12:27:43;;;;;;;13.00;10.77;;;4.70;99.90;;;;;;5045544;28;20071;-58
2023/01/23 12:30:37;;;;;;;12.27;10.40;;;4.70;99.90;;;;;;5043101;28;20068;-60
2023/01/23 12:33:22;;;;;;;17.98;11.57;;;4.70;99.90;;;;;;5041491;28;20431;-60
2023/01/23 12:36:30;;;;;;;16.80;11.57;;;4.70;99.90;;;;;;5046512;28;20067;-61
2023/01/23 12:39:07;;;;;;;13.93;11.20;;;4.70;99.90;;;;;;5020680;28;20052;-61
2023/01/23 12:41:52;;;;;;;16.45;10.98;;;4.70;99.90;;;;;;5049341;28;20313;-59
2023/01/23 12:44:32;;;;;;;16.80;11.82;;;4.70;99.90;;;;;;5041997;28;20044;-60
2023/01/23 12:47:06;;;;;;;14.13;10.90;;;4.70;99.90;;;;;;5046648;28;20371;-61
2023/01/23 12:49:44;;;;;;;14.88;12.45;;;4.70;99.90;;;;;;5045156;28;20108;-60
2023/01/23 12:52:22;;;;;;;14.80;10.60;;;4.70;99.90;;;;;;5043706;28;20546;-59
2023/01/23 12:55:22;;;;;;;16.98;11.43;;;4.70;99.90;;;;;;5039562;28;20055;-61
2023/01/23 12:57:53;;;;;;;13.93;10.75;;;4.70;99.90;;;;;;5017867;28;20111;-60
2023/01/23 13:00:55;;;;;;;16.70;11.38;;;4.70;99.90;;;;;;5024395;28;20539;-58